首页
METAR-TAF:

METAR-TAF

机场 :

广州白云国际机场

广州, 中华人民共和国

纬度: 23-10N, 经度: 113-20E, 海拔: 8米

当前天气观测

该预报发布于33分钟前的00:00 UTC
风速4节,风向,在东转东北东转东南之间变化
温度 19°C
湿度 83%
气压 1016 hPa
能見度: 4000
散云层高于2000英尺
阴天层高于5000英尺
轻雾

METAR: ZGGG 190000Z 09002MPS 060V120 4000 BR SCT020 OVC050 19/16 Q1016 NOSIG

时间: 08:33 (00:33 UTC)

预报

该预报发布于3小时和27分钟前的21:06 UTC
预报有效从19日的 00点(UTC)到 19日的 24点(UTC)
风速8节,风向南转南东
能見度: 4000
多云层高于3000英尺
轻雾
成为
从 19日的 02点(UTC)到 19日的 03点(UTC)
能見度: 8000

TAF: ZGGG 182106Z 1900/1924 16004MPS 4000 BR BKN030 TX27/1907Z TN19/1922Z BECMG 1902/1903 8000

超过4000个机场的气象观测和天气预报(METAR&TAF报告)。

可查询的气象台以黄色和红色小点在地图上表示。

将鼠标移到小点上方,可查看气象台名称。

然后点击查看天气观测和预报。

如需切换地图:点击带黑十字的绿色按钮放大地图;点击带横线的绿色按钮缩小地图;或者点击绿色箭头查看邻近地区的地图。


METAR-TAF: